Time;durP1;ratioP1;P1;durP2;ratioP2;P2;SDS_P1;SDS_P2;PMS_P1;PMS_P2;Temp;Humidity;BMP_temperature;BMP_pressure;BME280_temperature;BME280_humidity;BME280_pressure;Samples;Min_cycle;Max_cycle;Signal;HPM_P1;HPM_P2
2022/12/22 03:26:19;;;;;;;16.17;12.32;;;6.40;99.90;;;;;;5092112;28;20039;-56
2022/12/22 03:28:45;;;;;;;15.48;11.65;;;6.40;99.90;;;;;;5098248;28;20028;-57
2022/12/22 03:31:11;;;;;;;16.38;10.75;;;6.40;99.90;;;;;;5098499;28;20445;-55
2022/12/22 03:33:37;;;;;;;16.02;11.95;;;6.40;99.90;;;;;;5099822;28;20457;-56
2022/12/22 03:36:04;;;;;;;16.80;10.82;;;6.40;99.90;;;;;;5091947;28;20024;-57
2022/12/22 03:38:29;;;;;;;16.08;11.35;;;6.40;99.90;;;;;;5074000;28;20020;-56
2022/12/22 03:40:55;;;;;;;14.15;10.95;;;6.50;99.90;;;;;;5094224;28;20120;-52
2022/12/22 03:49:25;;;;;;;15.38;10.93;;;6.50;99.90;;;;;;5096909;28;20085;-55
2022/12/22 03:51:44;;;;;;;16.25;11.15;;;6.50;99.90;;;;;;5084491;28;20093;-56
2022/12/22 03:54:13;;;;;;;13.77;10.80;;;6.50;99.90;;;;;;5091559;28;20047;-57
2022/12/22 03:56:38;;;;;;;17.67;11.30;;;6.50;99.90;;;;;;5093757;28;20023;-57
2022/12/22 03:59:04;;;;;;;14.57;10.75;;;6.50;99.90;;;;;;5091916;28;20564;-54
2022/12/22 04:01:32;;;;;;;14.90;11.10;;;6.50;99.90;;;;;;5093820;28;20038;-54
2022/12/22 04:03:57;;;;;;;13.98;10.57;;;6.50;99.90;;;;;;5093985;28;20104;-56
2022/12/22 04:06:23;;;;;;;14.05;10.25;;;6.50;99.90;;;;;;5091045;28;20103;-56
2022/12/22 04:08:49;;;;;;;12.32;10.80;;;6.50;99.90;;;;;;5090995;28;20533;-56
2022/12/22 04:14:00;;;;;;;14.75;10.60;;;6.50;99.90;;;;;;5092975;28;20071;-56
2022/12/22 04:16:25;;;;;;;14.70;10.65;;;6.50;99.90;;;;;;5088944;28;20048;-57
2022/12/22 04:18:51;;;;;;;16.05;10.77;;;6.50;99.90;;;;;;5091559;28;20031;-53
2022/12/22 04:21:16;;;;;;;13.88;10.40;;;6.50;99.90;;;;;;5092917;28;20084;-56
2022/12/22 04:23:42;;;;;;;16.02;12.27;;;6.50;99.90;;;;;;5090875;28;20505;-57
2022/12/22 04:26:08;;;;;;;18.50;12.05;;;6.50;99.90;;;;;;5092668;28;20024;-57
2022/12/22 04:28:34;;;;;;;15.73;11.45;;;6.50;99.90;;;;;;5090722;28;20051;-56
2022/12/22 04:30:59;;;;;;;18.45;11.98;;;6.50;99.90;;;;;;5090759;28;20058;-57
2022/12/22 04:33:25;;;;;;;15.57;11.32;;;6.60;99.90;;;;;;5090873;28;20036;-54
2022/12/22 04:35:50;;;;;;;19.52;12.75;;;6.60;99.90;;;;;;5089766;28;20028;-53
2022/12/22 04:38:16;;;;;;;14.57;10.93;;;6.60;99.90;;;;;;5090837;28;20487;-54
2022/12/22 04:40:42;;;;;;;18.70;11.90;;;6.60;99.90;;;;;;5092370;28;20032;-56
2022/12/22 04:43:07;;;;;;;16.23;11.35;;;6.60;99.90;;;;;;5093653;28;20031;-57
2022/12/22 04:45:33;;;;;;;17.77;11.30;;;6.60;99.90;;;;;;5093904;28;20027;-56
2022/12/22 04:47:58;;;;;;;16.25;12.27;;;6.60;99.90;;;;;;5091955;28;20036;-57
2022/12/22 04:50:24;;;;;;;14.77;12.57;;;6.60;99.90;;;;;;5093313;28;20051;-56
2022/12/22 04:52:49;;;;;;;15.18;11.73;;;6.60;99.90;;;;;;5092913;28;20032;-57
2022/12/22 04:55:15;;;;;;;16.42;11.15;;;6.60;99.90;;;;;;5104850;22;20033;-61
2022/12/22 04:57:41;;;;;;;15.85;11.73;;;6.60;99.90;;;;;;5050496;28;20515;-61
2022/12/22 05:00:07;;;;;;;16.63;12.00;;;6.60;99.90;;;;;;5032584;28;20112;-61
2022/12/22 05:02:33;;;;;;;14.52;10.63;;;6.60;99.90;;;;;;5046137;28;20024;-61
2022/12/22 05:04:58;;;;;;;19.38;11.98;;;6.60;99.90;;;;;;5044888;28;20032;-61
2022/12/22 05:07:24;;;;;;;14.73;11.95;;;6.60;99.90;;;;;;5044738;28;20036;-62
2022/12/22 05:09:49;;;;;;;17.42;12.43;;;6.60;99.90;;;;;;5041351;28;20030;-61
2022/12/22 05:15:00;;;;;;;14.70;10.98;;;6.70;99.90;;;;;;5042180;28;20040;-61
2022/12/22 05:17:25;;;;;;;15.10;11.25;;;6.70;99.90;;;;;;5047925;28;20029;-61
2022/12/22 05:19:51;;;;;;;14.13;11.55;;;6.70;99.90;;;;;;5050084;28;20029;-61
2022/12/22 05:22:16;;;;;;;13.63;10.93;;;6.70;99.90;;;;;;5041638;28;20017;-61
2022/12/22 05:24:42;;;;;;;17.45;11.55;;;6.70;99.90;;;;;;5041150;28;20033;-61
2022/12/22 05:27:09;;;;;;;17.40;11.57;;;6.70;99.90;;;;;;5041954;28;20114;-61
2022/12/22 05:29:34;;;;;;;15.40;10.95;;;6.70;99.90;;;;;;5047756;28;20528;-62
2022/12/22 05:32:00;;;;;;;14.73;11.38;;;6.70;99.90;;;;;;5042560;28;20159;-61
2022/12/22 05:34:26;;;;;;;21.80;11.88;;;6.70;99.90;;;;;;5046459;28;20068;-62
2022/12/22 05:36:51;;;;;;;18.38;12.07;;;6.70;99.90;;;;;;5049184;28;20027;-62
2022/12/22 05:39:18;;;;;;;15.55;11.95;;;6.70;99.90;;;;;;5041219;28;20028;-62
2022/12/22 05:41:43;;;;;;;15.90;11.07;;;6.70;99.90;;;;;;5047561;28;20021;-62
2022/12/22 05:44:09;;;;;;;18.40;11.55;;;6.70;99.90;;;;;;5041403;28;20032;-61
2022/12/22 05:46:34;;;;;;;18.40;12.45;;;6.70;99.90;;;;;;5028801;28;20429;-61
2022/12/22 05:49:00;;;;;;;14.57;11.82;;;6.70;99.90;;;;;;5031195;28;20043;-62
2022/12/22 05:51:25;;;;;;;17.40;11.80;;;6.70;99.90;;;;;;5041126;28;20030;-62
2022/12/22 05:53:51;;;;;;;18.73;11.85;;;6.70;99.90;;;;;;5049237;28;20025;-62
2022/12/22 05:56:16;;;;;;;16.25;11.57;;;6.70;99.90;;;;;;5040938;28;20053;-62
2022/12/22 05:58:42;;;;;;;17.40;11.45;;;6.70;99.90;;;;;;5048141;28;20052;-62
2022/12/22 06:01:07;;;;;;;19.88;13.02;;;6.70;99.90;;;;;;5048763;28;20028;-61
2022/12/22 06:03:33;;;;;;;19.23;12.23;;;6.80;99.90;;;;;;5025514;28;20028;-61
2022/12/22 06:05:59;;;;;;;19.40;13.55;;;6.70;99.90;;;;;;5047546;28;20079;-62
2022/12/22 06:08:25;;;;;;;18.92;12.40;;;6.80;99.90;;;;;;5045313;28;20083;-62
2022/12/22 06:10:53;;;;;;;18.90;11.98;;;6.80;99.90;;;;;;5048896;28;20096;-62
2022/12/22 06:13:19;;;;;;;18.23;13.25;;;6.80;99.90;;;;;;5047517;28;20013;-61
2022/12/22 06:15:44;;;;;;;23.88;13.00;;;6.80;99.90;;;;;;5045590;28;20519;-62
2022/12/22 06:18:10;;;;;;;17.73;12.90;;;6.80;99.90;;;;;;5046340;28;20033;-61
2022/12/22 06:20:35;;;;;;;19.77;13.70;;;6.80;99.90;;;;;;5041938;28;20048;-61
2022/12/22 06:23:01;;;;;;;23.45;14.60;;;6.80;99.90;;;;;;5045080;28;20067;-60
2022/12/22 06:25:27;;;;;;;24.10;15.00;;;6.80;99.90;;;;;;5040117;28;20449;-62
2022/12/22 06:27:53;;;;;;;25.58;15.35;;;6.80;99.90;;;;;;5022695;28;20021;-62
2022/12/22 06:30:19;;;;;;;24.05;14.80;;;6.80;99.90;;;;;;5040233;28;20021;-61
2022/12/22 06:32:44;;;;;;;23.65;14.20;;;6.80;99.90;;;;;;5035804;28;20126;-62
2022/12/22 06:35:10;;;;;;;27.83;14.43;;;6.90;99.90;;;;;;5046279;28;20028;-63
2022/12/22 06:37:35;;;;;;;28.58;16.48;;;6.80;99.90;;;;;;5026788;28;20088;-62
2022/12/22 06:40:01;;;;;;;23.85;15.90;;;6.80;99.90;;;;;;5044879;28;20033;-61
2022/12/22 06:45:14;;;;;;;57.90;33.25;;;6.80;99.90;;;;;;5042904;28;20407;-62
2022/12/22 06:47:40;;;;;;;56.35;37.38;;;6.90;99.90;;;;;;5047291;28;20064;-61
2022/12/22 06:50:06;;;;;;;46.50;29.05;;;6.80;99.90;;;;;;5044104;28;20107;-62
2022/12/22 06:52:31;;;;;;;45.55;27.17;;;6.90;99.90;;;;;;5050159;28;20493;-62
2022/12/22 06:54:57;;;;;;;36.83;21.38;;;6.80;99.90;;;;;;5052373;28;20031;-61
2022/12/22 06:57:22;;;;;;;30.90;18.58;;;6.80;99.90;;;;;;5049477;28;20496;-61
2022/12/22 06:59:48;;;;;;;26.45;17.73;;;6.90;99.90;;;;;;5052251;28;20036;-61
2022/12/22 07:02:13;;;;;;;28.40;19.30;;;6.90;99.90;;;;;;5044572;28;20044;-61
2022/12/22 07:04:39;;;;;;;30.35;18.58;;;6.90;99.90;;;;;;5050779;28;20021;-59
2022/12/22 07:07:04;;;;;;;29.80;16.73;;;6.90;99.90;;;;;;5047502;28;20488;-61
2022/12/22 07:09:30;;;;;;;24.08;17.15;;;6.80;99.90;;;;;;5049603;28;20135;-61
2022/12/22 07:11:56;;;;;;;25.85;17.20;;;6.80;99.90;;;;;;5052636;28;20472;-61
2022/12/22 07:14:21;;;;;;;27.17;17.00;;;6.90;99.90;;;;;;5030499;28;20059;-61
2022/12/22 07:16:47;;;;;;;26.63;16.20;;;6.80;99.90;;;;;;5051115;28;20017;-61
2022/12/22 07:19:13;;;;;;;26.17;16.15;;;6.80;99.90;;;;;;5054798;28;20590;-61
2022/12/22 07:21:38;;;;;;;26.80;16.02;;;6.80;99.90;;;;;;5052224;28;20025;-61
2022/12/22 07:24:04;;;;;;;24.95;15.80;;;6.80;99.90;;;;;;5040956;28;20025;-61
2022/12/22 07:26:30;;;;;;;24.52;16.63;;;6.90;99.90;;;;;;5050716;28;21398;-62
2022/12/22 07:28:56;;;;;;;29.33;17.83;;;6.80;99.90;;;;;;5043783;28;20446;-61
2022/12/22 07:31:21;;;;;;;26.05;17.27;;;6.80;99.90;;;;;;5050358;28;20035;-61
2022/12/22 07:33:47;;;;;;;24.48;15.98;;;6.80;99.90;;;;;;5046857;28;20096;-61
2022/12/22 07:36:17;;;;;;;24.10;16.35;;;6.80;99.90;;;;;;5022652;28;20026;-61
2022/12/22 07:38:46;;;;;;;26.33;16.95;;;6.80;99.90;;;;;;5052024;28;20095;-61
2022/12/22 07:43:58;;;;;;;;;;;6.80;99.90;;;;;;5048191;28;20511;-60
2022/12/22 07:46:26;;;;;;;28.20;16.27;;;6.80;99.90;;;;;;5045297;28;20391;-62
2022/12/22 07:51:38;;;;;;;26.20;15.50;;;6.80;99.90;;;;;;5044532;28;20033;-60
2022/12/22 07:54:05;;;;;;;23.42;16.23;;;6.90;99.90;;;;;;5051713;28;20029;-62
2022/12/22 07:56:30;;;;;;;25.83;16.35;;;6.80;99.90;;;;;;5041903;28;20022;-60
2022/12/22 07:58:56;;;;;;;26.52;17.08;;;6.90;99.90;;;;;;5050515;28;20024;-60
2022/12/22 08:01:22;;;;;;;26.67;17.17;;;6.80;99.90;;;;;;5048014;28;20504;-60
2022/12/22 08:03:47;;;;;;;23.60;16.15;;;6.90;99.90;;;;;;5047010;28;20020;-61
2022/12/22 08:06:13;;;;;;;24.50;15.98;;;6.90;99.90;;;;;;5031922;28;20507;-61
2022/12/22 08:08:38;;;;;;;26.85;16.50;;;6.90;99.90;;;;;;5027278;28;20018;-61
2022/12/22 08:11:04;;;;;;;35.42;20.90;;;6.90;99.90;;;;;;5050924;28;20577;-59
2022/12/22 08:13:30;;;;;;;25.48;17.35;;;6.90;99.90;;;;;;5049773;28;20463;-61
2022/12/22 08:16:03;;;;;;;27.02;16.98;;;6.90;99.90;;;;;;5049909;28;20020;-61
2022/12/22 08:18:29;;;;;;;24.52;16.00;;;6.90;99.90;;;;;;5048646;28;20021;-61
2022/12/22 08:20:55;;;;;;;28.70;17.00;;;6.90;99.90;;;;;;5051214;28;20032;-61
2022/12/22 08:23:20;;;;;;;27.42;17.88;;;6.90;99.90;;;;;;5047545;28;20068;-61
2022/12/22 08:25:49;;;;;;;27.20;16.73;;;6.90;99.90;;;;;;5050190;28;20083;-61
2022/12/22 08:28:16;;;;;;;25.05;15.73;;;6.90;99.90;;;;;;5046452;28;20021;-61
2022/12/22 08:30:42;;;;;;;33.13;19.05;;;6.90;99.90;;;;;;5046264;28;20444;-61
2022/12/22 08:33:08;;;;;;;41.75;22.55;;;6.90;99.90;;;;;;5048902;28;20021;-61
2022/12/22 08:35:34;;;;;;;36.38;20.88;;;6.90;99.90;;;;;;5047121;28;20025;-61
2022/12/22 08:37:59;;;;;;;27.23;17.10;;;6.90;99.90;;;;;;5044617;28;20036;-61
2022/12/22 08:40:29;;;;;;;23.17;15.60;;;6.90;99.90;;;;;;5047841;28;20033;-59
2022/12/22 08:43:03;;;;;;;23.48;15.48;;;6.90;99.90;;;;;;5049840;28;20105;-61
2022/12/22 08:45:28;;;;;;;22.65;15.30;;;6.90;99.90;;;;;;5028677;28;20033;-61
2022/12/22 08:47:54;;;;;;;21.77;15.20;;;6.90;99.90;;;;;;5048461;28;20044;-62
2022/12/22 08:50:19;;;;;;;21.25;14.38;;;6.90;99.90;;;;;;5051032;28;20100;-62
2022/12/22 08:52:45;;;;;;;19.65;14.07;;;6.90;99.90;;;;;;5048677;28;20023;-62
2022/12/22 08:55:10;;;;;;;19.25;12.57;;;6.90;99.90;;;;;;5049905;28;20033;-61
2022/12/22 08:57:36;;;;;;;16.95;12.35;;;6.90;99.90;;;;;;5025265;28;20021;-62
2022/12/22 09:00:05;;;;;;;18.65;11.90;;;6.90;99.90;;;;;;5046977;28;20506;-62
2022/12/22 09:02:31;;;;;;;14.52;10.60;;;7.00;99.90;;;;;;5042681;28;20396;-61
2022/12/22 09:04:56;;;;;;;13.98;9.88;;;6.90;99.90;;;;;;5048346;28;20492;-62
2022/12/22 09:07:22;;;;;;;14.77;10.20;;;7.00;99.90;;;;;;5024543;28;20032;-61
2022/12/22 09:09:47;;;;;;;13.32;9.50;;;7.00;99.90;;;;;;5024394;28;20021;-61
2022/12/22 09:12:13;;;;;;;14.57;9.40;;;7.00;99.90;;;;;;5029920;28;20029;-62
2022/12/22 09:14:38;;;;;;;11.73;8.73;;;7.00;99.90;;;;;;5045087;28;20025;-61
2022/12/22 09:17:04;;;;;;;12.57;8.98;;;7.00;99.90;;;;;;5049215;28;20609;-61
2022/12/22 09:19:29;;;;;;;12.07;9.00;;;7.10;99.90;;;;;;5047243;28;20075;-62
2022/12/22 09:21:55;;;;;;;11.60;8.13;;;7.00;99.90;;;;;;5050364;28;20029;-61
2022/12/22 09:24:21;;;;;;;16.33;9.20;;;7.10;99.90;;;;;;5020843;28;20030;-62
2022/12/22 09:26:47;;;;;;;10.48;7.13;;;7.10;99.90;;;;;;5049868;28;20620;-62
2022/12/22 09:29:14;;;;;;;11.00;8.52;;;7.00;99.90;;;;;;5045043;28;20036;-62
2022/12/22 09:31:40;;;;;;;12.45;8.40;;;7.10;99.90;;;;;;5031531;28;20016;-61
2022/12/22 09:34:06;;;;;;;12.88;8.77;;;7.10;99.90;;;;;;5052565;28;20567;-62
2022/12/22 09:36:32;;;;;;;12.23;9.10;;;7.10;99.90;;;;;;5049181;28;20040;-62
2022/12/22 09:39:03;;;;;;;14.05;9.48;;;7.10;99.90;;;;;;5050036;28;20582;-62
2022/12/22 09:41:41;;;;;;;14.02;9.32;;;7.10;99.90;;;;;;5045028;28;20079;-62
2022/12/22 09:44:27;;;;;;;15.93;10.30;;;7.20;99.90;;;;;;5049751;28;20551;-62
2022/12/22 09:46:59;;;;;;;15.05;9.50;;;7.10;99.90;;;;;;5046110;28;20480;-62
2022/12/22 09:49:25;;;;;;;14.98;9.95;;;7.20;99.90;;;;;;5045203;28;20037;-63
2022/12/22 09:51:57;;;;;;;16.10;10.40;;;7.20;99.90;;;;;;5047048;28;20039;-62
2022/12/22 09:54:24;;;;;;;13.55;9.57;;;7.20;99.90;;;;;;5049302;28;20067;-62
2022/12/22 09:56:50;;;;;;;15.98;10.57;;;7.20;99.90;;;;;;5045434;28;20025;-62
2022/12/22 09:59:18;;;;;;;14.90;9.38;;;7.20;99.90;;;;;;5048669;28;20552;-61
2022/12/22 10:02:15;;;;;;;16.25;11.25;;;7.20;99.90;;;;;;5045336;28;20018;-61
2022/12/22 10:05:10;;;;;;;16.08;10.40;;;7.10;99.90;;;;;;5042318;28;20056;-62
2022/12/22 10:07:39;;;;;;;16.73;11.70;;;7.20;99.90;;;;;;5042025;28;20021;-61
2022/12/22 10:10:23;;;;;;;21.88;13.10;;;7.20;99.90;;;;;;5046631;28;20045;-61
2022/12/22 10:12:53;;;;;;;19.40;12.30;;;7.20;99.90;;;;;;5043146;28;20597;-62
2022/12/22 10:15:19;;;;;;;19.13;13.63;;;7.30;99.90;;;;;;5041174;28;20410;-62
2022/12/22 10:17:45;;;;;;;22.48;13.60;;;7.30;99.90;;;;;;5044223;28;20036;-62
2022/12/22 10:20:20;;;;;;;18.55;13.65;;;7.30;99.90;;;;;;5030027;28;20122;-61
2022/12/22 10:22:55;;;;;;;21.48;12.88;;;7.30;99.90;;;;;;5043358;28;20489;-61
2022/12/22 10:25:35;;;;;;;21.13;13.90;;;7.30;99.90;;;;;;5043251;28;20040;-62
2022/12/22 10:28:06;;;;;;;20.35;12.55;;;7.30;99.90;;;;;;5041585;28;20037;-61
2022/12/22 10:30:35;;;;;;;26.02;14.82;;;7.30;99.90;;;;;;5035211;28;20168;-62
2022/12/22 10:33:06;;;;;;;21.25;14.43;;;7.40;99.90;;;;;;5039786;28;20151;-61
2022/12/22 10:35:53;;;;;;;22.25;14.10;;;7.50;99.90;;;;;;5039583;28;21711;-62
2022/12/22 10:38:32;;;;;;;22.00;14.07;;;7.50;99.90;;;;;;5042289;28;20048;-61
2022/12/22 10:41:03;;;;;;;22.90;14.48;;;7.50;99.90;;;;;;5045083;28;20032;-61
2022/12/22 10:43:36;;;;;;;22.92;15.05;;;7.60;99.90;;;;;;5047678;28;20029;-61
2022/12/22 10:46:02;;;;;;;23.08;14.88;;;7.60;99.90;;;;;;5043623;28;20723;-62
2022/12/22 10:48:37;;;;;;;24.10;15.55;;;7.70;99.90;;;;;;5046477;28;20496;-61
2022/12/22 10:51:08;;;;;;;22.67;14.48;;;7.60;99.90;;;;;;5037729;28;20033;-61
2022/12/22 10:53:53;;;;;;;27.58;16.48;;;7.60;99.90;;;;;;5028300;28;20090;-62
2022/12/22 10:56:22;;;;;;;24.75;15.88;;;7.70;99.90;;;;;;5044648;28;20033;-61
2022/12/22 10:58:54;;;;;;;23.08;15.30;;;7.60;99.90;;;;;;5046479;28;20017;-62
2022/12/22 11:01:29;;;;;;;26.92;16.05;;;7.60;99.90;;;;;;5045579;28;20059;-61
2022/12/22 11:03:55;;;;;;;25.20;15.55;;;7.70;99.90;;;;;;5045811;28;20033;-61
2022/12/22 11:06:21;;;;;;;27.45;17.00;;;7.60;99.90;;;;;;5046087;28;20036;-61
2022/12/22 11:08:47;;;;;;;24.20;16.42;;;7.70;99.90;;;;;;5042871;28;20026;-61
2022/12/22 11:11:15;;;;;;;24.00;16.23;;;7.60;99.90;;;;;;5040271;28;20112;-62
2022/12/22 11:13:43;;;;;;;23.98;16.40;;;7.60;99.90;;;;;;5045425;28;20017;-61
2022/12/22 11:16:20;;;;;;;24.63;15.27;;;7.60;99.90;;;;;;5043319;28;20025;-61
2022/12/22 11:19:28;;;;;;;20.42;14.52;;;7.60;99.90;;;;;;5046072;28;20629;-61
2022/12/22 11:22:23;;;;;;;23.67;15.02;;;7.60;99.90;;;;;;5035792;28;20033;-62
2022/12/22 11:25:16;;;;;;;24.73;14.85;;;7.60;99.90;;;;;;5046192;28;20025;-60
2022/12/22 11:28:08;;;;;;;25.85;16.73;;;7.60;99.90;;;;;;5039175;28;20105;-62
2022/12/22 11:31:07;;;;;;;22.67;14.38;;;7.70;99.90;;;;;;5038849;28;20392;-61
2022/12/22 11:33:52;;;;;;;26.38;15.25;;;7.70;99.90;;;;;;5040854;28;20510;-62
2022/12/22 11:36:29;;;;;;;23.63;14.85;;;7.80;99.90;;;;;;5018649;28;20032;-62
2022/12/22 11:39:16;;;;;;;25.42;14.77;;;7.80;99.90;;;;;;5051829;28;20594;-61
2022/12/22 11:41:54;;;;;;;25.17;15.48;;;7.80;99.90;;;;;;5049165;28;20029;-62
2022/12/22 11:44:32;;;;;;;27.75;16.08;;;7.80;99.90;;;;;;5050173;28;20330;-60
2022/12/22 11:47:07;;;;;;;25.20;15.30;;;7.80;99.90;;;;;;5049363;28;20461;-61
2022/12/22 11:49:58;;;;;;;24.63;15.13;;;7.80;99.90;;;;;;5048439;28;20405;-60
2022/12/22 11:52:53;;;;;;;24.58;13.93;;;7.80;99.90;;;;;;5048354;28;20508;-62
2022/12/22 11:55:29;;;;;;;23.45;14.27;;;7.80;99.90;;;;;;5050855;28;20033;-62
2022/12/22 11:58:39;;;;;;;22.60;14.27;;;7.80;99.90;;;;;;5048982;28;20071;-61
2022/12/22 12:01:11;;;;;;;24.52;14.68;;;7.80;99.90;;;;;;5048688;28;20130;-62
2022/12/22 12:03:54;;;;;;;21.55;13.50;;;7.80;99.90;;;;;;5046280;28;20021;-62
2022/12/22 12:06:36;;;;;;;14.60;11.15;;;7.80;99.90;;;;;;5049229;28;20017;-61
2022/12/22 12:09:12;;;;;;;19.00;12.40;;;7.70;99.90;;;;;;5048082;28;20404;-62
2022/12/22 12:12:01;;;;;;;16.73;11.38;;;7.70;99.90;;;;;;5047251;28;20500;-61
2022/12/22 12:14:44;;;;;;;18.83;11.88;;;7.70;99.90;;;;;;5046378;28;20106;-61
2022/12/22 12:17:19;;;;;;;17.85;11.40;;;7.70;99.90;;;;;;5049161;28;20484;-61
2022/12/22 12:20:01;;;;;;;14.95;9.57;;;7.70;99.90;;;;;;5042575;28;20488;-61
2022/12/22 12:22:42;;;;;;;15.57;10.50;;;7.70;99.90;;;;;;5040809;28;20023;-61
2022/12/22 12:25:28;;;;;;;16.27;11.25;;;7.60;99.90;;;;;;5037330;28;20041;-61
2022/12/22 12:27:54;;;;;;;;;;;7.60;99.90;;;;;;5031315;28;20021;-60
2022/12/22 12:30:22;;;;;;;13.70;10.47;;;7.50;99.90;;;;;;5041203;28;20311;-60
2022/12/22 12:33:00;;;;;;;14.98;10.82;;;7.50;99.90;;;;;;5045087;28;20108;-61
2022/12/22 12:35:32;;;;;;;15.98;11.15;;;7.50;99.90;;;;;;5046208;28;20037;-62
2022/12/22 12:38:06;;;;;;;18.15;11.45;;;7.50;99.90;;;;;;5030908;28;20496;-61
2022/12/22 12:40:50;;;;;;;18.58;11.25;;;7.60;99.90;;;;;;5034059;28;20021;-61
2022/12/22 12:43:17;;;;;;;18.48;12.25;;;7.50;99.90;;;;;;5036062;28;20029;-61
2022/12/22 12:45:46;;;;;;;18.00;11.38;;;7.50;99.90;;;;;;5028827;28;20401;-60
2022/12/22 12:48:21;;;;;;;14.95;10.85;;;7.50;99.90;;;;;;5034596;28;20040;-61
2022/12/22 12:50:52;;;;;;;15.93;10.50;;;7.50;99.90;;;;;;5032067;28;20493;-61
2022/12/22 12:53:22;;;;;;;19.27;10.98;;;7.50;99.90;;;;;;5031726;28;20029;-61
2022/12/22 12:55:53;;;;;;;17.63;10.85;;;7.50;99.90;;;;;;5032606;28;20043;-60
2022/12/22 12:58:33;;;;;;;17.60;12.25;;;7.50;99.90;;;;;;5036467;28;20392;-60
2022/12/22 13:01:00;;;;;;;16.45;10.80;;;7.60;99.90;;;;;;5035027;28;20568;-61
2022/12/22 13:03:28;;;;;;;18.15;11.65;;;7.60;99.90;;;;;;5033065;28;20040;-61
2022/12/22 13:05:56;;;;;;;17.98;10.82;;;7.60;99.90;;;;;;5033245;28;20032;-61
2022/12/22 13:08:24;;;;;;;15.65;10.35;;;7.60;99.90;;;;;;5033020;28;20029;-61
2022/12/22 13:10:53;;;;;;;17.00;10.95;;;7.60;99.90;;;;;;5031174;28;20060;-61
2022/12/22 13:13:24;;;;;;;17.23;10.05;;;7.60;99.90;;;;;;5033649;28;20029;-61
2022/12/22 13:15:59;;;;;;;19.15;10.15;;;7.60;99.90;;;;;;5035558;28;20096;-62
2022/12/22 13:18:24;;;;;;;13.35;9.00;;;7.60;99.90;;;;;;5031841;28;20488;-61
2022/12/22 13:20:59;;;;;;;12.45;8.90;;;7.60;99.90;;;;;;5031014;28;20019;-61
2022/12/22 13:23:34;;;;;;;18.27;8.48;;;7.60;99.90;;;;;;5034803;28;20037;-61
2022/12/22 13:26:06;;;;;;;12.57;7.90;;;7.60;99.90;;;;;;5015472;28;20022;-60
2022/12/22 13:28:34;;;;;;;14.27;8.60;;;7.60;99.90;;;;;;5034087;28;20033;-62
2022/12/22 13:31:06;;;;;;;14.50;7.85;;;7.60;99.90;;;;;;5031688;28;20080;-60
2022/12/22 13:33:37;;;;;;;15.85;8.32;;;7.60;99.90;;;;;;5033321;28;20065;-60
2022/12/22 13:36:07;;;;;;;15.13;8.43;;;7.50;99.90;;;;;;5031416;28;20022;-62
2022/12/22 13:38:35;;;;;;;17.98;8.00;;;7.50;99.90;;;;;;5033357;28;20030;-62
2022/12/22 13:41:20;;;;;;;18.63;8.73;;;7.50;99.90;;;;;;5018281;28;20025;-62
2022/12/22 13:43:53;;;;;;;16.60;9.07;;;7.40;99.90;;;;;;5032456;28;20029;-61
2022/12/22 13:46:18;;;;;;;17.60;8.13;;;7.40;99.90;;;;;;5033977;28;20439;-62
2022/12/22 13:48:49;;;;;;;22.75;10.57;;;7.40;99.90;;;;;;5034736;28;20013;-62
2022/12/22 13:51:28;;;;;;;26.92;16.95;;;7.30;99.90;;;;;;5019997;28;20055;-61
2022/12/22 13:53:56;;;;;;;23.17;15.60;;;7.30;99.90;;;;;;5034178;28;20018;-62
2022/12/22 13:56:34;;;;;;;13.50;8.70;;;7.30;99.90;;;;;;5034671;28;20029;-62
2022/12/22 13:59:01;;;;;;;17.50;10.05;;;7.20;99.90;;;;;;5037274;28;20025;-61
2022/12/22 14:01:27;;;;;;;18.42;9.13;;;7.20;99.90;;;;;;5035969;28;20025;-60
2022/12/22 14:03:58;;;;;;;18.55;11.45;;;7.20;99.90;;;;;;5034763;28;20014;-62
2022/12/22 14:06:36;;;;;;;13.93;8.70;;;7.20;99.90;;;;;;5016198;28;20037;-62
2022/12/22 14:09:22;;;;;;;17.90;10.02;;;7.20;99.90;;;;;;5036446;28;20090;-61
2022/12/22 14:12:02;;;;;;;16.77;10.07;;;7.20;99.90;;;;;;5034720;28;20385;-62
2022/12/22 14:14:37;;;;;;;18.25;8.32;;;7.20;99.90;;;;;;5037927;28;20232;-61
2022/12/22 14:17:03;;;;;;;20.67;11.07;;;7.10;99.90;;;;;;5035170;28;20358;-62
2022/12/22 14:19:32;;;;;;;15.38;10.23;;;7.10;99.90;;;;;;5040996;28;20083;-61
2022/12/22 14:22:07;;;;;;;16.38;8.63;;;7.10;99.90;;;;;;5042895;28;20036;-61
2022/12/22 14:24:53;;;;;;;16.52;9.30;;;7.00;99.90;;;;;;5041605;28;20464;-61
2022/12/22 14:27:42;;;;;;;17.75;10.82;;;6.90;99.90;;;;;;5021895;28;20020;-62
2022/12/22 14:30:23;;;;;;;14.50;9.63;;;6.90;99.90;;;;;;5042538;28;20028;-61
2022/12/22 14:32:51;;;;;;;19.23;9.70;;;6.80;99.90;;;;;;5035335;28;20036;-60
2022/12/22 14:35:20;;;;;;;17.90;9.27;;;6.70;99.90;;;;;;5039580;28;20048;-61
2022/12/22 14:37:50;;;;;;;14.45;8.82;;;6.70;99.90;;;;;;5031186;28;20108;-56
2022/12/22 14:40:40;;;;;;;20.42;9.20;;;6.70;99.90;;;;;;5021141;28;20021;-60
2022/12/22 14:43:23;;;;;;;21.08;11.55;;;6.60;99.90;;;;;;5045669;28;20403;-61
2022/12/22 14:45:51;;;;;;;21.73;10.55;;;6.60;99.90;;;;;;5036432;28;20025;-60
2022/12/22 14:48:43;;;;;;;18.23;10.20;;;6.60;99.90;;;;;;5043537;28;20039;-61
2022/12/22 14:51:09;;;;;;;16.75;9.30;;;6.50;99.90;;;;;;5035450;28;20454;-61
2022/12/22 14:53:43;;;;;;;13.40;8.68;;;6.40;99.90;;;;;;5043968;28;20028;-61
2022/12/22 14:56:16;;;;;;;15.63;9.43;;;6.30;99.90;;;;;;5041048;28;20033;-60
2022/12/22 14:58:43;;;;;;;15.82;9.40;;;6.30;99.90;;;;;;5042563;28;20028;-60
2022/12/22 15:01:17;;;;;;;17.60;9.55;;;6.20;99.90;;;;;;5046901;28;20392;-58
2022/12/22 15:03:55;;;;;;;14.60;8.77;;;6.20;99.90;;;;;;5040318;28;20024;-60
2022/12/22 15:06:33;;;;;;;15.10;7.85;;;6.10;99.90;;;;;;5044332;28;20665;-60
2022/12/22 15:09:10;;;;;;;12.05;7.82;;;6.10;99.90;;;;;;5039423;28;20025;-59
2022/12/22 15:11:48;;;;;;;11.88;7.25;;;6.00;99.90;;;;;;5047339;28;20365;-60
2022/12/22 15:14:18;;;;;;;10.10;6.38;;;6.00;99.90;;;;;;5043571;28;20050;-61
2022/12/22 15:16:44;;;;;;;15.07;8.27;;;5.90;99.90;;;;;;5031615;28;20032;-59
2022/12/22 15:19:16;;;;;;;15.77;8.63;;;5.80;99.90;;;;;;5045210;28;20476;-60
2022/12/22 15:21:41;;;;;;;12.45;8.00;;;5.80;99.90;;;;;;5029515;28;20017;-60
2022/12/22 15:24:11;;;;;;;16.45;8.40;;;5.80;99.90;;;;;;5049486;28;20389;-60
2022/12/22 15:26:37;;;;;;;19.35;8.45;;;5.80;99.90;;;;;;5051990;28;20074;-60
2022/12/22 15:29:03;;;;;;;14.98;8.60;;;5.70;99.90;;;;;;5030120;28;20119;-61
2022/12/22 15:31:28;;;;;;;12.70;7.20;;;5.70;99.90;;;;;;5051266;28;20078;-61
2022/12/22 15:33:58;;;;;;;13.18;7.55;;;5.70;99.90;;;;;;5047525;28;20025;-61
2022/12/22 15:36:24;;;;;;;15.23;8.38;;;5.60;99.90;;;;;;5032057;28;20053;-61
2022/12/22 15:38:50;;;;;;;11.10;6.55;;;5.60;99.90;;;;;;5041703;28;20052;-60
2022/12/22 15:41:15;;;;;;;16.48;7.43;;;5.60;99.90;;;;;;5049511;28;20021;-60
2022/12/22 15:43:41;;;;;;;15.75;7.25;;;5.50;99.90;;;;;;5033836;28;20028;-60
2022/12/22 15:46:09;;;;;;;11.35;7.20;;;5.50;99.90;;;;;;5050998;28;20033;-60
2022/12/22 15:48:37;;;;;;;12.63;7.93;;;5.50;99.90;;;;;;5051352;28;20033;-60
2022/12/22 15:51:04;;;;;;;14.63;6.88;;;5.40;99.90;;;;;;5051689;28;20233;-61
2022/12/22 15:53:32;;;;;;;15.40;6.78;;;5.40;99.90;;;;;;5050379;28;20104;-60
2022/12/22 15:55:58;;;;;;;9.35;6.20;;;5.40;99.90;;;;;;5032158;28;20021;-59
2022/12/22 15:58:29;;;;;;;8.70;5.75;;;5.30;99.90;;;;;;5049267;28;20028;-60
2022/12/22 16:00:55;;;;;;;9.70;6.13;;;5.30;99.90;;;;;;5051137;28;20035;-61
2022/12/22 16:03:20;;;;;;;20.15;9.55;;;5.30;99.90;;;;;;5048513;28;20443;-59
2022/12/22 16:05:46;;;;;;;30.35;19.02;;;5.30;99.90;;;;;;5049930;28;20021;-60
2022/12/22 16:08:16;;;;;;;36.08;18.42;;;5.20;99.90;;;;;;5047114;28;20025;-59
2022/12/22 16:10:42;;;;;;;29.30;16.80;;;5.20;99.90;;;;;;5049446;28;20029;-59
2022/12/22 16:13:11;;;;;;;20.80;11.05;;;5.20;99.90;;;;;;5046371;28;20033;-60
2022/12/22 16:15:37;;;;;;;13.15;9.00;;;5.20;99.90;;;;;;5050633;28;20021;-60
2022/12/22 16:18:03;;;;;;;13.15;7.97;;;5.10;99.90;;;;;;5048945;28;20107;-61
2022/12/22 16:20:35;;;;;;;13.45;8.48;;;5.10;99.90;;;;;;5047526;28;20030;-60
2022/12/22 16:23:02;;;;;;;10.35;7.72;;;5.10;99.90;;;;;;5046830;28;20049;-61
2022/12/22 16:25:37;;;;;;;12.65;8.13;;;5.10;99.90;;;;;;5042855;28;20028;-62
2022/12/22 16:28:04;;;;;;;13.73;7.32;;;5.10;99.90;;;;;;5047327;28;20526;-60
2022/12/22 16:30:32;;;;;;;11.48;7.38;;;5.00;99.90;;;;;;5042960;28;20020;-60
2022/12/22 16:32:58;;;;;;;13.27;7.55;;;5.00;99.90;;;;;;5046241;28;20032;-59
2022/12/22 16:35:26;;;;;;;13.88;7.95;;;5.00;99.90;;;;;;5047173;28;20028;-60
2022/12/22 16:37:55;;;;;;;11.32;6.10;;;5.00;99.90;;;;;;5045953;28;20021;-62
2022/12/22 16:40:20;;;;;;;10.02;6.00;;;5.00;99.90;;;;;;5047102;28;20069;-61